KGRB

Green Bay-Austin Straubel International Airport

Green Bay, Wisconsin, USA
METAR KGRB 161011Z AUTO 07006KT 6SM -SN SCT020 OVC041 M08/M11 A2986 RMK AO2 P0000 T10781106
Observed Flight Rules
Dec-16 @ 10:11 UTC (36 minutes ago) Visual Flight Rules
Wind Visibility Clouds Conditions
70° at 6 knots 6 miles
  • Scattered at 2,000' AGL
  • Overcast at 4,100' AGL
  • Light Snow
Temperatures Readings Precipitation
Current -8°C / 18°F
Dewpoint -11°C / 12°F
Humidity 79%
Altimeter 29.86" Hg
Pressure 1011 hPa
Elevation 208
Current Rain 0.005
METAR KGRB 161011Z AUTO 07006KT 6SM -SN SCT020 OVC041 M08/M11 A2986 RMK AO2 P0000 T10781106
Observed Flight Rules
Dec-16 @ 10:11 UTC
(36 minutes ago)
VFR
Wind Visibility
70° at 6 knots 6 miles
Clouds
  • Scattered at 2,000' AGL
  • Overcast at 4,100' AGL
Conditions
  • Light Snow
Temperature Dewpoint
-8°C / 18°F -11°C / 12°F
Humidity Altimeter Pressure
79% 29.86" Hg 1011 hPa
Current Rain
0.005